Time,TemperatureF,DewpointF,PressureIn,WindDirection,WindDirectionDegrees,WindSpeedMPH,WindSpeedGustMPH,Humidity,HourlyPrecipIn,Conditions,Clouds,dailyrainin,SoftwareType,DateUTC
2013-02-18 00:01:00,26.2,9.6,30.20,North,360,10.0,18.0,49,0.00,,,0.00,Wunderground v.1.15,2013-02-18 05:01:00,
2013-02-18 00:03:00,26.1,9.5,30.20,North,360,10.0,18.0,49,0.00,,,0.00,Wunderground v.1.15,2013-02-18 05:03:00,
2013-02-18 00:07:00,26.2,9.6,30.20,North,360,10.0,18.0,49,0.00,,,0.00,Wunderground v.1.15,2013-02-18 05:07:00,
2013-02-18 00:09:00,26.1,9.5,30.20,North,360,11.0,11.0,49,0.00,,,0.00,Wunderground v.1.15,2013-02-18 05:09:00,
2013-02-18 00:13:00,26.0,9.4,30.20,North,360,10.0,11.0,49,0.00,,,0.00,Wunderground v.1.15,2013-02-18 05:13:00,
2013-02-18 00:17:00,26.1,9.5,30.21,North,360,12.0,17.0,49,0.00,,,0.00,Wunderground v.1.15,2013-02-18 05:17:00,
2013-02-18 00:21:00,26.1,9.5,30.21,North,360,12.0,13.0,49,0.00,,,0.00,Wunderground v.1.15,2013-02-18 05:21:00,
2013-02-18 00:23:00,26.0,9.4,30.21,North,360,12.0,13.0,49,0.00,,,0.00,Wunderground v.1.15,2013-02-18 05:23:00,
2013-02-18 00:27:00,26.0,9.4,30.21,North,360,12.0,13.0,49,0.00,,,0.00,Wunderground v.1.15,2013-02-18 05:27:00,
2013-02-18 00:31:00,26.0,9.4,30.21,North,360,11.0,14.0,49,0.00,,,0.00,Wunderground v.1.15,2013-02-18 05:31:00,
2013-02-18 00:33:00,25.9,9.3,30.21,North,360,11.0,14.0,49,0.00,,,0.00,Wunderground v.1.15,2013-02-18 05:33:00,
2013-02-18 00:35:00,25.9,9.3,30.22,North,360,10.0,14.0,49,0.00,,,0.00,Wunderground v.1.15,2013-02-18 05:35:00,
2013-02-18 00:37:00,26.1,9.5,30.21,North,360,9.0,14.0,49,0.00,,,0.00,Wunderground v.1.15,2013-02-18 05:37:00,
2013-02-18 00:39:00,26.0,9.4,30.21,North,360,9.0,9.0,49,0.00,,,0.00,Wunderground v.1.15,2013-02-18 05:39:00,
2013-02-18 00:45:00,25.8,9.2,30.22,North,360,11.0,17.0,49,0.00,,,0.00,Wunderground v.1.15,2013-02-18 05:45:00,
2013-02-18 00:49:00,25.7,9.2,30.22,North,360,13.0,13.0,49,0.00,,,0.00,Wunderground v.1.15,2013-02-18 05:49:00,
2013-02-18 00:51:00,25.8,9.2,30.23,North,360,13.0,13.0,49,0.00,,,0.00,Wunderground v.1.15,2013-02-18 05:51:00,
2013-02-18 00:55:00,25.7,9.2,30.23,North,360,11.0,13.0,49,0.00,,,0.00,Wunderground v.1.15,2013-02-18 05:55:00,
2013-02-18 00:57:00,25.7,9.2,30.23,North,360,10.0,13.0,49,0.00,,,0.00,Wunderground v.1.15,2013-02-18 05:57:00,
2013-02-18 00:59:00,25.7,8.7,30.23,North,360,11.0,12.0,48,0.00,,,0.00,Wunderground v.1.15,2013-02-18 05:59:00,
2013-02-18 01:03:00,25.7,8.7,30.23,North,360,12.0,17.0,48,0.00,,,0.00,Wunderground v.1.15,2013-02-18 06:03:00,
2013-02-18 01:05:00,25.7,8.7,30.23,North,360,12.0,17.0,48,0.00,,,0.00,Wunderground v.1.15,2013-02-18 06:05:00,
2013-02-18 01:11:00,25.6,8.6,30.23,North,360,11.0,17.0,48,0.00,,,0.00,Wunderground v.1.15,2013-02-18 06:11:00,
2013-02-18 01:13:00,25.5,8.5,30.23,North,360,11.0,17.0,48,0.00,,,0.00,Wunderground v.1.15,2013-02-18 06:13:00,
2013-02-18 01:17:00,25.4,8.4,30.23,North,360,13.0,18.0,48,0.00,,,0.00,Wunderground v.1.15,2013-02-18 06:17:00,
2013-02-18 01:19:00,25.5,9.0,30.23,North,360,12.0,13.0,49,0.00,,,0.00,Wunderground v.1.15,2013-02-18 06:19:00,
2013-02-18 01:23:00,25.3,8.3,30.23,North,360,11.0,13.0,48,0.00,,,0.00,Wunderground v.1.15,2013-02-18 06:23:00,
2013-02-18 01:25:00,25.4,8.4,30.23,North,360,11.0,13.0,48,0.00,,,0.00,Wunderground v.1.15,2013-02-18 06:25:00,
2013-02-18 01:27:00,25.5,8.5,30.23,North,360,9.0,13.0,48,0.00,,,0.00,Wunderground v.1.15,2013-02-18 06:27:00,
2013-02-18 01:33:00,25.3,8.3,30.23,North,360,10.0,11.0,48,0.00,,,0.00,Wunderground v.1.15,2013-02-18 06:33:00,
2013-02-18 01:35:00,25.4,8.4,30.23,North,360,10.0,21.0,48,0.00,,,0.00,Wunderground v.1.15,2013-02-18 06:35:00,
2013-02-18 01:37:00,25.2,7.8,30.23,North,360,11.0,21.0,47,0.00,,,0.00,Wunderground v.1.15,2013-02-18 06:37:00,
2013-02-18 01:39:00,25.1,7.7,30.23,North,360,12.0,22.0,47,0.00,,,0.00,Wunderground v.1.15,2013-02-18 06:39:00,
2013-02-18 01:43:00,25.1,7.7,30.23,North,360,12.0,22.0,47,0.00,,,0.00,Wunderground v.1.15,2013-02-18 06:43:00,
2013-02-18 01:47:00,24.9,7.5,30.23,North,360,13.0,22.0,47,0.00,,,0.00,Wunderground v.1.15,2013-02-18 06:47:00,
2013-02-18 01:49:00,24.9,8.0,30.23,North,360,11.0,14.0,48,0.00,,,0.00,Wunderground v.1.15,2013-02-18 06:49:00,
2013-02-18 01:51:00,25.0,8.0,30.23,North,360,11.0,14.0,48,0.00,,,0.00,Wunderground v.1.15,2013-02-18 06:51:00,
2013-02-18 01:53:00,24.9,8.0,30.23,North,360,10.0,14.0,48,0.00,,,0.00,Wunderground v.1.15,2013-02-18 06:53:00,
2013-02-18 01:55:00,24.9,7.5,30.23,North,360,10.0,14.0,47,0.00,,,0.00,Wunderground v.1.15,2013-02-18 06:55:00,
2013-02-18 01:59:00,24.9,7.5,30.23,North,360,10.0,13.0,47,0.00,,,0.00,Wunderground v.1.15,2013-02-18 06:59:00,
2013-02-18 02:01:00,24.8,7.4,30.23,North,360,11.0,13.0,47,0.00,,,0.00,Wunderground v.1.15,2013-02-18 07:01:00,
2013-02-18 02:03:00,25.0,7.6,30.23,North,360,12.0,13.0,47,0.00,,,0.00,Wunderground v.1.15,2013-02-18 07:03:00,
2013-02-18 02:05:00,25.1,7.7,30.23,North,360,11.0,21.0,47,0.00,,,0.00,Wunderground v.1.15,2013-02-18 07:05:00,
2013-02-18 02:11:00,25.0,7.6,30.24,North,360,9.0,11.0,47,0.00,,,0.00,Wunderground v.1.15,2013-02-18 07:11:00,
2013-02-18 02:15:00,25.1,7.7,30.24,North,360,9.0,11.0,47,0.00,,,0.00,Wunderground v.1.15,2013-02-18 07:15:00,
2013-02-18 02:21:00,25.0,7.6,30.24,North,360,9.0,18.0,47,0.00,,,0.00,Wunderground v.1.15,2013-02-18 07:21:00,
2013-02-18 02:23:00,25.3,7.9,30.24,North,360,9.0,18.0,47,0.00,,,0.00,Wunderground v.1.15,2013-02-18 07:23:00,
2013-02-18 02:27:00,25.4,7.9,30.24,North,360,9.0,18.0,47,0.00,,,0.00,Wunderground v.1.15,2013-02-18 07:27:00,
2013-02-18 02:29:00,25.3,7.9,30.24,North,360,9.0,16.0,47,0.00,,,0.00,Wunderground v.1.15,2013-02-18 07:29:00,
2013-02-18 02:35:00,24.9,7.0,30.25,North,360,10.0,16.0,46,0.00,,,0.00,Wunderground v.1.15,2013-02-18 07:35:00,
2013-02-18 02:37:00,24.8,6.9,30.24,North,360,11.0,16.0,46,0.00,,,0.00,Wunderground v.1.15,2013-02-18 07:37:00,
2013-02-18 02:39:00,24.7,7.3,30.25,North,360,12.0,13.0,47,0.00,,,0.00,Wunderground v.1.15,2013-02-18 07:39:00,
2013-02-18 02:43:00,24.5,7.1,30.25,North,360,13.0,13.0,47,0.00,,,0.00,Wunderground v.1.15,2013-02-18 07:43:00,
2013-02-18 02:45:00,24.5,7.1,30.24,North,360,13.0,15.0,47,0.00,,,0.00,Wunderground v.1.15,2013-02-18 07:45:00,
2013-02-18 02:47:00,24.4,7.0,30.24,North,360,12.0,15.0,47,0.00,,,0.00,Wunderground v.1.15,2013-02-18 07:47:00,
2013-02-18 02:51:00,24.3,6.9,30.25,North,360,13.0,15.0,47,0.00,,,0.00,Wunderground v.1.15,2013-02-18 07:51:00,
2013-02-18 02:55:00,24.4,7.5,30.25,North,360,12.0,21.0,48,0.00,,,0.00,Wunderground v.1.15,2013-02-18 07:55:00,
2013-02-18 02:57:00,24.4,7.0,30.25,North,360,12.0,21.0,47,0.00,,,0.00,Wunderground v.1.15,2013-02-18 07:57:00,
2013-02-18 02:59:00,24.5,7.6,30.25,North,360,12.0,12.0,48,0.00,,,0.00,Wunderground v.1.15,2013-02-18 07:59:00,
2013-02-18 03:01:00,24.5,7.6,30.26,North,360,11.0,12.0,48,0.00,,,0.00,Wunderground v.1.15,2013-02-18 08:01:00,
2013-02-18 03:05:00,24.6,7.7,30.26,North,360,10.0,12.0,48,0.00,,,0.00,Wunderground v.1.15,2013-02-18 08:05:00,
2013-02-18 03:07:00,24.8,7.9,30.26,North,360,8.0,12.0,48,0.00,,,0.00,Wunderground v.1.15,2013-02-18 08:07:00,
2013-02-18 03:09:00,24.8,7.9,30.26,North,360,8.0,8.0,48,0.00,,,0.00,Wunderground v.1.15,2013-02-18 08:09:00,
2013-02-18 03:13:00,24.7,7.3,30.26,North,360,7.0,9.0,47,0.00,,,0.00,Wunderground v.1.15,2013-02-18 08:13:00,
2013-02-18 03:15:00,24.7,7.8,30.25,North,360,7.0,9.0,48,0.00,,,0.00,Wunderground v.1.15,2013-02-18 08:15:00,
2013-02-18 03:17:00,24.6,7.7,30.25,North,360,8.0,11.0,48,0.00,,,0.00,Wunderground v.1.15,2013-02-18 08:17:00,
2013-02-18 03:21:00,24.5,7.6,30.25,North,360,9.0,9.0,48,0.00,,,0.00,Wunderground v.1.15,2013-02-18 08:21:00,
2013-02-18 03:23:00,24.4,7.5,30.25,North,360,10.0,17.0,48,0.00,,,0.00,Wunderground v.1.15,2013-02-18 08:23:00,
2013-02-18 03:27:00,24.3,7.4,30.25,North,360,11.0,17.0,48,0.00,,,0.00,Wunderground v.1.15,2013-02-18 08:27:00,
2013-02-18 03:29:00,24.2,7.8,30.25,North,360,11.0,12.0,49,0.00,,,0.00,Wunderground v.1.15,2013-02-18 08:29:00,
2013-02-18 03:31:00,24.2,7.8,30.25,North,360,12.0,12.0,49,0.00,,,0.00,Wunderground v.1.15,2013-02-18 08:31:00,
2013-02-18 03:35:00,24.1,7.7,30.25,North,360,13.0,16.0,49,0.00,,,0.00,Wunderground v.1.15,2013-02-18 08:35:00,
2013-02-18 03:37:00,24.1,7.7,30.25,North,360,13.0,16.0,49,0.00,,,0.00,Wunderground v.1.15,2013-02-18 08:37:00,
2013-02-18 03:41:00,24.0,7.6,30.25,North,360,13.0,14.0,49,0.00,,,0.00,Wunderground v.1.15,2013-02-18 08:41:00,
2013-02-18 03:45:00,24.2,7.8,30.26,North,360,11.0,14.0,49,0.00,,,0.00,Wunderground v.1.15,2013-02-18 08:45:00,
2013-02-18 03:51:00,24.0,7.6,30.26,North,360,11.0,15.0,49,0.00,,,0.00,Wunderground v.1.15,2013-02-18 08:51:00,
2013-02-18 03:53:00,24.0,7.6,30.26,North,360,12.0,15.0,49,0.00,,,0.00,Wunderground v.1.15,2013-02-18 08:53:00,
2013-02-18 03:55:00,24.0,7.6,30.26,North,360,13.0,15.0,49,0.00,,,0.00,Wunderground v.1.15,2013-02-18 08:55:00,
2013-02-18 03:57:00,24.0,7.6,30.26,North,360,13.0,15.0,49,0.00,,,0.00,Wunderground v.1.15,2013-02-18 08:57:00,
2013-02-18 03:59:00,24.0,7.6,30.26,North,360,13.0,13.0,49,0.00,,,0.00,Wunderground v.1.15,2013-02-18 08:59:00,
2013-02-18 04:01:00,23.9,7.5,30.26,North,360,13.0,13.0,49,0.00,,,0.00,Wunderground v.1.15,2013-02-18 09:01:00,
2013-02-18 04:05:00,23.8,7.4,30.26,North,360,12.0,13.0,49,0.00,,,0.00,Wunderground v.1.15,2013-02-18 09:05:00,
2013-02-18 04:11:00,23.8,7.4,30.26,North,360,13.0,17.0,49,0.00,,,0.00,Wunderground v.1.15,2013-02-18 09:11:00,
2013-02-18 04:13:00,23.7,7.7,30.26,North,360,14.0,17.0,50,0.00,,,0.00,Wunderground v.1.15,2013-02-18 09:13:00,
2013-02-18 04:15:00,23.7,7.7,30.26,North,360,13.0,17.0,50,0.00,,,0.00,Wunderground v.1.15,2013-02-18 09:15:00,
2013-02-18 04:17:00,23.8,7.8,30.26,North,360,13.0,17.0,50,0.00,,,0.00,Wunderground v.1.15,2013-02-18 09:17:00,
2013-02-18 04:23:00,23.9,7.9,30.26,North,360,9.0,12.0,50,0.00,,,0.00,Wunderground v.1.15,2013-02-18 09:23:00,
2013-02-18 04:25:00,23.9,7.9,30.27,North,360,9.0,12.0,50,0.00,,,0.00,Wunderground v.1.15,2013-02-18 09:25:00,
2013-02-18 04:27:00,23.9,7.9,30.27,North,360,8.0,12.0,50,0.00,,,0.00,Wunderground v.1.15,2013-02-18 09:27:00,
2013-02-18 04:31:00,23.8,7.8,30.27,North,360,8.0,12.0,50,0.00,,,0.00,Wunderground v.1.15,2013-02-18 09:31:00,
2013-02-18 04:33:00,23.8,7.8,30.27,North,360,8.0,12.0,50,0.00,,,0.00,Wunderground v.1.15,2013-02-18 09:33:00,
2013-02-18 04:35:00,23.9,8.4,30.27,North,360,7.0,12.0,51,0.00,,,0.00,Wunderground v.1.15,2013-02-18 09:35:00,
2013-02-18 04:41:00,24.0,8.5,30.28,North,360,6.0,8.0,51,0.00,,,0.00,Wunderground v.1.15,2013-02-18 09:41:00,
2013-02-18 04:43:00,24.0,8.5,30.28,North,360,6.0,8.0,51,0.00,,,0.00,Wunderground v.1.15,2013-02-18 09:43:00,
2013-02-18 04:47:00,23.9,7.9,30.28,North,360,6.0,8.0,50,0.00,,,0.00,Wunderground v.1.15,2013-02-18 09:47:00,
2013-02-18 04:49:00,23.8,8.3,30.28,North,360,7.0,7.0,51,0.00,,,0.00,Wunderground v.1.15,2013-02-18 09:49:00,
2013-02-18 04:53:00,23.6,8.1,30.28,North,360,7.0,11.0,51,0.00,,,0.00,Wunderground v.1.15,2013-02-18 09:53:00,
2013-02-18 04:55:00,23.5,8.0,30.28,North,360,8.0,11.0,51,0.00,,,0.00,Wunderground v.1.15,2013-02-18 09:55:00,
2013-02-18 04:57:00,23.5,8.4,30.29,North,360,8.0,11.0,52,0.00,,,0.00,Wunderground v.1.15,2013-02-18 09:57:00,
2013-02-18 05:01:00,23.4,8.3,30.29,North,360,8.0,8.0,52,0.00,,,0.00,Wunderground v.1.15,2013-02-18 10:01:00,
2013-02-18 05:03:00,23.3,8.2,30.29,North,360,9.0,9.0,52,0.00,,,0.00,Wunderground v.1.15,2013-02-18 10:03:00,
2013-02-18 05:05:00,23.3,8.2,30.29,North,360,8.0,9.0,52,0.00,,,0.00,Wunderground v.1.15,2013-02-18 10:05:00,
2013-02-18 05:07:00,23.4,8.3,30.30,North,360,8.0,11.0,52,0.00,,,0.00,Wunderground v.1.15,2013-02-18 10:07:00,
2013-02-18 05:11:00,23.3,8.7,30.30,North,360,8.0,8.0,53,0.00,,,0.00,Wunderground v.1.15,2013-02-18 10:11:00,
2013-02-18 05:13:00,23.3,8.2,30.29,North,360,7.0,9.0,52,0.00,,,0.00,Wunderground v.1.15,2013-02-18 10:13:00,
2013-02-18 05:17:00,23.3,8.2,30.30,North,360,7.0,9.0,52,0.00,,,0.00,Wunderground v.1.15,2013-02-18 10:17:00,
2013-02-18 05:21:00,23.3,8.7,30.30,North,360,8.0,11.0,53,0.00,,,0.00,Wunderground v.1.15,2013-02-18 10:21:00,
2013-02-18 05:23:00,23.3,8.7,30.30,North,360,8.0,11.0,53,0.00,,,0.00,Wunderground v.1.15,2013-02-18 10:23:00,
2013-02-18 05:25:00,23.3,8.7,30.30,North,360,8.0,11.0,53,0.00,,,0.00,Wunderground v.1.15,2013-02-18 10:25:00,
2013-02-18 05:29:00,23.2,8.6,30.30,North,360,8.0,11.0,53,0.00,,,0.00,Wunderground v.1.15,2013-02-18 10:29:00,
2013-02-18 05:31:00,23.2,8.6,30.30,North,360,8.0,11.0,53,0.00,,,0.00,Wunderground v.1.15,2013-02-18 10:31:00,
2013-02-18 05:35:00,23.2,9.0,30.31,North,360,8.0,11.0,54,0.00,,,0.00,Wunderground v.1.15,2013-02-18 10:35:00,
2013-02-18 05:37:00,23.3,8.7,30.31,North,360,8.0,11.0,53,0.00,,,0.00,Wunderground v.1.15,2013-02-18 10:37:00,
2013-02-18 05:43:00,23.3,8.7,30.31,North,360,8.0,10.0,53,0.00,,,0.00,Wunderground v.1.15,2013-02-18 10:43:00,
2013-02-18 05:45:00,23.4,9.2,30.31,North,360,8.0,10.0,54,0.00,,,0.00,Wunderground v.1.15,2013-02-18 10:45:00,
2013-02-18 05:51:00,23.3,9.1,30.31,North,360,7.0,11.0,54,0.00,,,0.00,Wunderground v.1.15,2013-02-18 10:51:00,
2013-02-18 05:53:00,23.4,9.2,30.31,North,360,8.0,11.0,54,0.00,,,0.00,Wunderground v.1.15,2013-02-18 10:53:00,
2013-02-18 05:57:00,23.4,8.8,30.31,North,360,7.0,11.0,53,0.00,,,0.00,Wunderground v.1.15,2013-02-18 10:57:00,
2013-02-18 05:59:00,23.4,9.2,30.31,North,360,7.0,7.0,54,0.00,,,0.00,Wunderground v.1.15,2013-02-18 10:59:00,
2013-02-18 06:05:00,23.4,9.2,30.32,North,360,7.0,12.0,54,0.00,,,0.00,Wunderground v.1.15,2013-02-18 11:05:00,
2013-02-18 06:11:00,23.4,8.8,30.32,North,360,6.0,7.0,53,0.00,,,0.00,Wunderground v.1.15,2013-02-18 11:11:00,
2013-02-18 06:17:00,23.3,8.7,30.32,North,360,7.0,12.0,53,0.00,,,0.00,Wunderground v.1.15,2013-02-18 11:17:00,
2013-02-18 06:19:00,23.3,8.7,30.32,North,360,8.0,8.0,53,0.00,,,0.00,Wunderground v.1.15,2013-02-18 11:19:00,
2013-02-18 06:23:00,23.4,8.8,30.32,North,360,7.0,8.0,53,0.00,,,0.00,Wunderground v.1.15,2013-02-18 11:23:00,
2013-02-18 06:25:00,23.4,8.8,30.33,North,360,6.0,10.0,53,0.00,,,0.00,Wunderground v.1.15,2013-02-18 11:25:00,
2013-02-18 06:29:00,23.3,8.7,30.33,North,360,6.0,11.0,53,0.00,,,0.00,Wunderground v.1.15,2013-02-18 11:29:00,
2013-02-18 06:31:00,23.3,8.7,30.33,North,360,7.0,11.0,53,0.00,,,0.00,Wunderground v.1.15,2013-02-18 11:31:00,
2013-02-18 06:37:00,23.1,8.9,30.33,North,360,8.0,11.0,54,0.00,,,0.00,Wunderground v.1.15,2013-02-18 11:37:00,
2013-02-18 06:39:00,23.0,8.8,30.33,North,360,8.0,10.0,54,0.00,,,0.00,Wunderground v.1.15,2013-02-18 11:39:00,
2013-02-18 06:45:00,23.2,9.0,30.33,North,360,7.0,10.0,54,0.00,,,0.00,Wunderground v.1.15,2013-02-18 11:45:00,
2013-02-18 06:47:00,23.2,9.0,30.33,North,360,8.0,10.0,54,0.00,,,0.00,Wunderground v.1.15,2013-02-18 11:47:00,
2013-02-18 06:49:00,23.2,9.0,30.34,North,360,8.0,9.0,54,0.00,,,0.00,Wunderground v.1.15,2013-02-18 11:49:00,
2013-02-18 06:53:00,23.1,8.9,30.34,North,360,8.0,10.0,54,0.00,,,0.00,Wunderground v.1.15,2013-02-18 11:53:00,
2013-02-18 06:55:00,23.1,8.9,30.34,North,360,8.0,12.0,54,0.00,,,0.00,Wunderground v.1.15,2013-02-18 11:55:00,
2013-02-18 07:01:00,23.1,8.9,30.35,North,360,9.0,11.0,54,0.00,,,0.00,Wunderground v.1.15,2013-02-18 12:01:00,
2013-02-18 07:03:00,23.0,9.2,30.35,North,360,9.0,11.0,55,0.00,,,0.00,Wunderground v.1.15,2013-02-18 12:03:00,
2013-02-18 07:07:00,23.1,9.3,30.35,North,360,9.0,11.0,55,0.00,,,0.00,Wunderground v.1.15,2013-02-18 12:07:00,
2013-02-18 07:09:00,23.2,9.4,30.35,North,360,9.0,9.0,55,0.00,,,0.00,Wunderground v.1.15,2013-02-18 12:09:00,
2013-02-18 07:13:00,23.3,9.5,30.35,North,360,8.0,9.0,55,0.00,,,0.00,Wunderground v.1.15,2013-02-18 12:13:00,
2013-02-18 07:17:00,23.3,9.5,30.35,North,360,8.0,9.0,55,0.00,,,0.00,Wunderground v.1.15,2013-02-18 12:17:00,
2013-02-18 07:21:00,23.5,9.7,30.35,North,360,7.0,7.0,55,0.00,,,0.00,Wunderground v.1.15,2013-02-18 12:21:00,
2013-02-18 07:23:00,23.5,9.7,30.35,North,360,6.0,7.0,55,0.00,,,0.00,Wunderground v.1.15,2013-02-18 12:23:00,
2013-02-18 07:29:00,23.5,9.7,30.35,North,360,6.0,6.0,55,0.00,,,0.00,Wunderground v.1.15,2013-02-18 12:29:00,
2013-02-18 07:31:00,23.5,9.7,30.36,North,360,6.0,6.0,55,0.00,,,0.00,Wunderground v.1.15,2013-02-18 12:31:00,
2013-02-18 07:35:00,23.6,9.8,30.35,North,360,6.0,7.0,55,0.00,,,0.00,Wunderground v.1.15,2013-02-18 12:35:00,
2013-02-18 07:41:00,23.7,9.9,30.36,North,360,5.0,5.0,55,0.00,,,0.00,Wunderground v.1.15,2013-02-18 12:41:00,
2013-02-18 07:47:00,23.9,10.1,30.36,North,360,6.0,8.0,55,0.00,,,0.00,Wunderground v.1.15,2013-02-18 12:47:00,
2013-02-18 07:49:00,23.9,9.6,30.36,North,360,5.0,5.0,54,0.00,,,0.00,Wunderground v.1.15,2013-02-18 12:49:00,
2013-02-18 07:53:00,24.1,9.8,30.36,North,360,5.0,5.0,54,0.00,,,0.00,Wunderground v.1.15,2013-02-18 12:53:00,
2013-02-18 07:59:00,24.2,9.9,30.36,North,360,6.0,7.0,54,0.00,,,0.00,Wunderground v.1.15,2013-02-18 12:59:00,
2013-02-18 08:01:00,24.3,9.6,30.36,North,360,7.0,13.0,53,0.00,,,0.00,Wunderground v.1.15,2013-02-18 13:01:00,
2013-02-18 08:05:00,24.1,9.4,30.36,North,360,9.0,13.0,53,0.00,,,0.00,Wunderground v.1.15,2013-02-18 13:05:00,
2013-02-18 08:07:00,24.1,9.4,30.36,North,360,9.0,13.0,53,0.00,,,0.00,Wunderground v.1.15,2013-02-18 13:07:00,
2013-02-18 08:11:00,24.2,9.5,30.36,North,360,10.0,11.0,53,0.00,,,0.00,Wunderground v.1.15,2013-02-18 13:11:00,
2013-02-18 08:13:00,24.3,9.6,30.37,North,360,10.0,11.0,53,0.00,,,0.00,Wunderground v.1.15,2013-02-18 13:13:00,
2013-02-18 08:17:00,24.6,9.9,30.37,North,360,9.0,11.0,53,0.00,,,0.00,Wunderground v.1.15,2013-02-18 13:17:00,
2013-02-18 08:21:00,24.9,9.7,30.37,North,360,7.0,11.0,52,0.00,,,0.00,Wunderground v.1.15,2013-02-18 13:21:00,
2013-02-18 08:23:00,25.1,9.9,30.38,North,360,7.0,11.0,52,0.00,,,0.00,Wunderground v.1.15,2013-02-18 13:23:00,
2013-02-18 08:27:00,25.2,9.6,30.38,North,360,7.0,11.0,51,0.00,,,0.00,Wunderground v.1.15,2013-02-18 13:27:00,
2013-02-18 08:33:00,25.1,9.5,30.38,North,360,7.0,10.0,51,0.00,,,0.00,Wunderground v.1.15,2013-02-18 13:33:00,
2013-02-18 08:35:00,25.1,9.5,30.38,North,360,8.0,10.0,51,0.00,,,0.00,Wunderground v.1.15,2013-02-18 13:35:00,
2013-02-18 08:39:00,24.9,9.3,30.38,North,360,9.0,9.0,51,0.00,,,0.00,Wunderground v.1.15,2013-02-18 13:39:00,
2013-02-18 08:41:00,25.0,9.4,30.38,North,360,9.0,9.0,51,0.00,,,0.00,Wunderground v.1.15,2013-02-18 13:41:00,
2013-02-18 08:43:00,25.1,9.5,30.38,North,360,10.0,11.0,51,0.00,,,0.00,Wunderground v.1.15,2013-02-18 13:43:00,
2013-02-18 08:49:00,25.3,9.7,30.38,North,360,9.0,9.0,51,0.00,,,0.00,Wunderground v.1.15,2013-02-18 13:49:00,
2013-02-18 08:51:00,25.4,9.3,30.38,North,360,9.0,11.0,50,0.00,,,0.00,Wunderground v.1.15,2013-02-18 13:51:00,
2013-02-18 08:53:00,25.3,9.2,30.38,North,360,10.0,17.0,50,0.00,,,0.00,Wunderground v.1.15,2013-02-18 13:53:00,
2013-02-18 08:55:00,25.2,9.1,30.38,North,360,10.0,17.0,50,0.00,,,0.00,Wunderground v.1.15,2013-02-18 13:55:00,
2013-02-18 08:59:00,25.4,9.3,30.38,North,360,10.0,16.0,50,0.00,,,0.00,Wunderground v.1.15,2013-02-18 13:59:00,
2013-02-18 09:01:00,25.4,9.3,30.38,North,360,11.0,17.0,50,0.00,,,0.00,Wunderground v.1.15,2013-02-18 14:01:00,
2013-02-18 09:03:00,25.4,9.3,30.38,North,360,11.0,17.0,50,0.00,,,0.00,Wunderground v.1.15,2013-02-18 14:03:00,
2013-02-18 09:07:00,25.6,9.5,30.38,North,360,11.0,17.0,50,0.00,,,0.00,Wunderground v.1.15,2013-02-18 14:07:00,
2013-02-18 09:13:00,25.8,9.7,30.38,North,360,10.0,13.0,50,0.00,,,0.00,Wunderground v.1.15,2013-02-18 14:13:00,
2013-02-18 09:15:00,25.9,9.3,30.38,North,360,11.0,13.0,49,0.00,,,0.00,Wunderground v.1.15,2013-02-18 14:15:00,
2013-02-18 09:19:00,26.1,10.0,30.38,North,360,11.0,11.0,50,0.00,,,0.00,Wunderground v.1.15,2013-02-18 14:19:00,
2013-02-18 09:23:00,26.3,9.2,30.38,North,360,10.0,14.0,48,0.00,,,0.00,Wunderground v.1.15,2013-02-18 14:23:00,
2013-02-18 09:29:00,26.3,9.2,30.38,North,360,10.0,16.0,48,0.00,,,0.00,Wunderground v.1.15,2013-02-18 14:29:00,
2013-02-18 09:35:00,26.6,9.1,30.38,North,360,12.0,16.0,47,0.00,,,0.00,Wunderground v.1.15,2013-02-18 14:35:00,
2013-02-18 09:37:00,26.9,9.3,30.38,North,360,12.0,16.0,47,0.00,,,0.00,Wunderground v.1.15,2013-02-18 14:37:00,
2013-02-18 09:41:00,27.1,9.5,30.38,North,360,10.0,16.0,47,0.00,,,0.00,Wunderground v.1.15,2013-02-18 14:41:00,
2013-02-18 09:43:00,27.2,9.6,30.38,North,360,10.0,16.0,47,0.00,,,0.00,Wunderground v.1.15,2013-02-18 14:43:00,
2013-02-18 09:45:00,27.2,9.1,30.38,North,360,9.0,16.0,46,0.00,,,0.00,Wunderground v.1.15,2013-02-18 14:45:00,
2013-02-18 09:47:00,27.1,9.0,30.38,North,360,9.0,16.0,46,0.00,,,0.00,Wunderground v.1.15,2013-02-18 14:47:00,
2013-02-18 09:53:00,27.6,9.5,30.38,North,360,7.0,10.0,46,0.00,,,0.00,Wunderground v.1.15,2013-02-18 14:53:00,
2013-02-18 09:59:00,28.0,9.9,30.38,North,360,7.0,7.0,46,0.00,,,0.00,Wunderground v.1.15,2013-02-18 14:59:00,
2013-02-18 10:01:00,28.4,10.7,30.38,North,360,7.0,7.0,47,0.00,,,0.00,Wunderground v.1.15,2013-02-18 15:01:00,
2013-02-18 10:03:00,28.5,9.8,30.38,North,360,7.0,7.0,45,0.00,,,0.00,Wunderground v.1.15,2013-02-18 15:03:00,
2013-02-18 10:07:00,28.7,10.0,30.38,North,360,7.0,11.0,45,0.00,,,0.00,Wunderground v.1.15,2013-02-18 15:07:00,
2013-02-18 10:09:00,28.7,9.5,30.38,North,360,8.0,8.0,44,0.00,,,0.00,Wunderground v.1.15,2013-02-18 15:09:00,
2013-02-18 10:15:00,28.3,9.6,30.38,North,360,9.0,11.0,45,0.00,,,0.00,Wunderground v.1.15,2013-02-18 15:15:00,
2013-02-18 10:19:00,28.3,9.6,30.38,North,360,7.0,8.0,45,0.00,,,0.00,Wunderground v.1.15,2013-02-18 15:19:00,
2013-02-18 10:21:00,28.1,9.5,30.38,North,360,8.0,9.0,45,0.00,,,0.00,Wunderground v.1.15,2013-02-18 15:21:00,
2013-02-18 10:25:00,27.7,9.6,30.37,North,360,7.0,9.0,46,0.00,,,0.00,Wunderground v.1.15,2013-02-18 15:25:00,
2013-02-18 10:29:00,28.0,10.3,30.38,North,360,7.0,7.0,47,0.00,,,0.00,Wunderground v.1.15,2013-02-18 15:29:00,
2013-02-18 10:31:00,28.4,10.2,30.38,North,360,6.0,12.0,46,0.00,,,0.00,Wunderground v.1.15,2013-02-18 15:31:00,
2013-02-18 10:35:00,28.8,10.1,30.38,North,360,7.0,12.0,45,0.00,,,0.00,Wunderground v.1.15,2013-02-18 15:35:00,
2013-02-18 10:37:00,28.9,10.2,30.37,North,360,7.0,12.0,45,0.00,,,0.00,Wunderground v.1.15,2013-02-18 15:37:00,
2013-02-18 10:41:00,28.7,10.0,30.38,North,360,8.0,10.0,45,0.00,,,0.00,Wunderground v.1.15,2013-02-18 15:41:00,
2013-02-18 10:43:00,28.8,9.6,30.38,North,360,9.0,11.0,44,0.00,,,0.00,Wunderground v.1.15,2013-02-18 15:43:00,
2013-02-18 10:45:00,28.8,9.6,30.38,North,360,9.0,11.0,44,0.00,,,0.00,Wunderground v.1.15,2013-02-18 15:45:00,
2013-02-18 10:47:00,28.9,9.7,30.38,North,360,9.0,11.0,44,0.00,,,0.00,Wunderground v.1.15,2013-02-18 15:47:00,
2013-02-18 10:51:00,29.2,10.5,30.37,North,360,8.0,9.0,45,0.00,,,0.00,Wunderground v.1.15,2013-02-18 15:51:00,
2013-02-18 10:53:00,29.5,10.2,30.37,North,360,7.0,9.0,44,0.00,,,0.00,Wunderground v.1.15,2013-02-18 15:53:00,
2013-02-18 10:55:00,29.8,10.5,30.37,North,360,6.0,9.0,44,0.00,,,0.00,Wunderground v.1.15,2013-02-18 15:55:00,
2013-02-18 10:59:00,29.9,9.6,30.37,North,360,5.0,11.0,42,0.00,,,0.00,Wunderground v.1.15,2013-02-18 15:59:00,
2013-02-18 11:01:00,29.6,9.8,30.37,North,360,6.0,11.0,43,0.00,,,0.00,Wunderground v.1.15,2013-02-18 16:01:00,
2013-02-18 11:05:00,29.7,10.4,30.37,North,360,6.0,11.0,44,0.00,,,0.00,Wunderground v.1.15,2013-02-18 16:05:00,
2013-02-18 11:07:00,29.6,9.8,30.37,North,360,7.0,11.0,43,0.00,,,0.00,Wunderground v.1.15,2013-02-18 16:07:00,
2013-02-18 11:13:00,29.7,9.4,30.37,North,360,7.0,10.0,42,0.00,,,0.00,Wunderground v.1.15,2013-02-18 16:13:00,
2013-02-18 11:15:00,29.6,9.3,30.37,North,360,8.0,10.0,42,0.00,,,0.00,Wunderground v.1.15,2013-02-18 16:15:00,
2013-02-18 11:19:00,30.4,10.0,30.36,North,360,7.0,7.0,42,0.00,,,0.00,Wunderground v.1.15,2013-02-18 16:19:00,
2013-02-18 11:21:00,30.7,10.3,30.36,North,360,8.0,10.0,42,0.00,,,0.00,Wunderground v.1.15,2013-02-18 16:21:00,
2013-02-18 11:23:00,30.7,9.7,30.36,North,360,7.0,13.0,41,0.00,,,0.00,Wunderground v.1.15,2013-02-18 16:23:00,
2013-02-18 11:27:00,30.8,10.4,30.36,North,360,7.0,13.0,42,0.00,,,0.00,Wunderground v.1.15,2013-02-18 16:27:00,
2013-02-18 11:29:00,31.1,10.1,30.36,North,360,7.0,7.0,41,0.00,,,0.00,Wunderground v.1.15,2013-02-18 16:29:00,
2013-02-18 11:35:00,31.1,9.6,30.36,North,360,6.0,10.0,40,0.00,,,0.00,Wunderground v.1.15,2013-02-18 16:35:00,
2013-02-18 11:39:00,31.6,10.6,30.36,North,360,8.0,8.0,41,0.00,,,0.00,Wunderground v.1.15,2013-02-18 16:39:00,
2013-02-18 11:43:00,32.2,10.0,30.35,North,360,8.0,8.0,39,0.00,,,0.00,Wunderground v.1.15,2013-02-18 16:43:00,
2013-02-18 11:45:00,32.1,9.9,30.35,North,360,8.0,8.0,39,0.00,,,0.00,Wunderground v.1.15,2013-02-18 16:45:00,
2013-02-18 11:47:00,32.2,10.0,30.35,North,360,7.0,8.0,39,0.00,,,0.00,Wunderground v.1.15,2013-02-18 16:47:00,
2013-02-18 11:51:00,31.9,9.7,30.35,North,360,8.0,9.0,39,0.00,,,0.00,Wunderground v.1.15,2013-02-18 16:51:00,
2013-02-18 11:55:00,32.1,10.5,30.34,North,360,7.0,9.0,40,0.00,,,0.00,Wunderground v.1.15,2013-02-18 16:55:00,
2013-02-18 11:57:00,32.2,10.0,30.34,North,360,7.0,9.0,39,0.00,,,0.00,Wunderground v.1.15,2013-02-18 16:57:00,
2013-02-18 11:59:00,32.1,9.9,30.34,North,360,6.0,6.0,39,0.00,,,0.00,Wunderground v.1.15,2013-02-18 16:59:00,
2013-02-18 12:01:00,32.1,10.5,30.34,North,360,6.0,6.0,40,0.00,,,0.00,Wunderground v.1.15,2013-02-18 17:01:00,
2013-02-18 12:07:00,32.4,9.6,30.34,North,360,7.0,9.0,38,0.00,,,0.00,Wunderground v.1.15,2013-02-18 17:07:00,
2013-02-18 12:11:00,32.5,9.7,30.34,North,360,8.0,12.0,38,0.00,,,0.00,Wunderground v.1.15,2013-02-18 17:11:00,
2013-02-18 12:13:00,32.8,9.9,30.34,North,360,8.0,12.0,38,0.00,,,0.00,Wunderground v.1.15,2013-02-18 17:13:00,
2013-02-18 12:15:00,32.9,10.0,30.34,North,360,7.0,12.0,38,0.00,,,0.00,Wunderground v.1.15,2013-02-18 17:15:00,
2013-02-18 12:19:00,33.3,10.4,30.33,North,360,6.0,6.0,38,0.00,,,0.00,Wunderground v.1.15,2013-02-18 17:19:00,
2013-02-18 12:21:00,33.7,11.3,30.33,North,360,5.0,6.0,39,0.00,,,0.00,Wunderground v.1.15,2013-02-18 17:21:00,
2013-02-18 12:23:00,34.1,11.1,30.33,North,360,4.0,6.0,38,0.00,,,0.00,Wunderground v.1.15,2013-02-18 17:23:00,
2013-02-18 12:27:00,34.3,11.3,30.33,North,360,3.0,6.0,38,0.00,,,0.00,Wunderground v.1.15,2013-02-18 17:27:00,
2013-02-18 12:29:00,34.3,10.7,30.33,North,360,3.0,7.0,37,0.00,,,0.00,Wunderground v.1.15,2013-02-18 17:29:00,
2013-02-18 12:33:00,34.0,11.0,30.32,North,360,4.0,7.0,38,0.00,,,0.00,Wunderground v.1.15,2013-02-18 17:33:00,
2013-02-18 12:39:00,34.8,11.1,30.32,North,360,3.0,5.0,37,0.00,,,0.00,Wunderground v.1.15,2013-02-18 17:39:00,
2013-02-18 12:41:00,35.0,11.3,30.32,North,360,2.0,5.0,37,0.00,,,0.00,Wunderground v.1.15,2013-02-18 17:41:00,
2013-02-18 12:43:00,35.0,10.7,30.32,North,360,2.0,5.0,36,0.00,,,0.00,Wunderground v.1.15,2013-02-18 17:43:00,
2013-02-18 12:49:00,35.0,11.3,30.31,North,360,3.0,3.0,37,0.00,,,0.00,Wunderground v.1.15,2013-02-18 17:49:00,
2013-02-18 12:53:00,35.3,11.0,30.31,North,360,3.0,6.0,36,0.00,,,0.00,Wunderground v.1.15,2013-02-18 17:53:00,
2013-02-18 12:55:00,35.2,10.9,30.31,North,360,3.0,6.0,36,0.00,,,0.00,Wunderground v.1.15,2013-02-18 17:55:00,
2013-02-18 12:59:00,35.5,11.1,30.30,North,360,3.0,5.0,36,0.00,,,0.00,Wunderground v.1.15,2013-02-18 17:59:00,
2013-02-18 13:01:00,35.7,11.3,30.30,North,360,3.0,5.0,36,0.00,,,0.00,Wunderground v.1.15,2013-02-18 18:01:00,
2013-02-18 13:07:00,35.7,10.0,30.30,North,360,5.0,10.0,34,0.00,,,0.00,Wunderground v.1.15,2013-02-18 18:07:00,
2013-02-18 13:09:00,35.7,10.0,30.30,North,360,5.0,8.0,34,0.00,,,0.00,Wunderground v.1.15,2013-02-18 18:09:00,
2013-02-18 13:11:00,35.7,10.0,30.30,North,360,5.0,8.0,34,0.00,,,0.00,Wunderground v.1.15,2013-02-18 18:11:00,
2013-02-18 13:15:00,35.9,10.9,30.30,North,360,4.0,8.0,35,0.00,,,0.00,Wunderground v.1.15,2013-02-18 18:15:00,
2013-02-18 13:17:00,36.3,11.2,30.30,North,360,4.0,8.0,35,0.00,,,0.00,Wunderground v.1.15,2013-02-18 18:17:00,
2013-02-18 13:23:00,36.3,11.2,30.29,North,360,4.0,8.0,35,0.00,,,0.00,Wunderground v.1.15,2013-02-18 18:23:00,
2013-02-18 13:25:00,36.4,11.3,30.29,North,360,5.0,8.0,35,0.00,,,0.00,Wunderground v.1.15,2013-02-18 18:25:00,
2013-02-18 13:31:00,36.6,11.5,30.29,North,360,6.0,9.0,35,0.00,,,0.00,Wunderground v.1.15,2013-02-18 18:31:00,
2013-02-18 13:35:00,37.1,11.9,30.28,North,360,5.0,9.0,35,0.00,,,0.00,Wunderground v.1.15,2013-02-18 18:35:00,
2013-02-18 13:37:00,37.3,12.1,30.28,North,360,4.0,9.0,35,0.00,,,0.00,Wunderground v.1.15,2013-02-18 18:37:00,
2013-02-18 13:41:00,37.6,11.7,30.29,North,360,3.0,4.0,34,0.00,,,0.00,Wunderground v.1.15,2013-02-18 18:41:00,
2013-02-18 13:43:00,37.8,11.9,30.29,North,360,2.0,4.0,34,0.00,,,0.00,Wunderground v.1.15,2013-02-18 18:43:00,
2013-02-18 13:45:00,38.0,12.7,30.29,North,360,2.0,4.0,35,0.00,,,0.00,Wunderground v.1.15,2013-02-18 18:45:00,
2013-02-18 13:47:00,38.0,12.1,30.29,North,360,2.0,4.0,34,0.00,,,0.00,Wunderground v.1.15,2013-02-18 18:47:00,
2013-02-18 13:51:00,38.3,12.3,30.28,North,360,2.0,4.0,34,0.00,,,0.00,Wunderground v.1.15,2013-02-18 18:51:00,
2013-02-18 13:53:00,38.3,12.3,30.28,North,360,3.0,4.0,34,0.00,,,0.00,Wunderground v.1.15,2013-02-18 18:53:00,
2013-02-18 13:57:00,38.2,12.3,30.28,North,360,4.0,5.0,34,0.00,,,0.00,Wunderground v.1.15,2013-02-18 18:57:00,
2013-02-18 13:59:00,38.0,12.1,30.28,North,360,4.0,7.0,34,0.00,,,0.00,Wunderground v.1.15,2013-02-18 18:59:00,
2013-02-18 14:03:00,37.9,12.6,30.28,North,360,5.0,7.0,35,0.00,,,0.00,Wunderground v.1.15,2013-02-18 19:03:00,
2013-02-18 14:05:00,38.0,12.1,30.28,North,360,5.0,7.0,34,0.00,,,0.00,Wunderground v.1.15,2013-02-18 19:05:00,
2013-02-18 14:09:00,38.0,11.4,30.27,North,360,7.0,7.0,33,0.00,,,0.00,Wunderground v.1.15,2013-02-18 19:09:00,
2013-02-18 14:15:00,38.6,12.6,30.27,North,360,6.0,11.0,34,0.00,,,0.00,Wunderground v.1.15,2013-02-18 19:15:00,
2013-02-18 14:17:00,38.7,12.7,30.27,North,360,6.0,11.0,34,0.00,,,0.00,Wunderground v.1.15,2013-02-18 19:17:00,
2013-02-18 14:21:00,38.6,11.9,30.27,North,360,6.0,6.0,33,0.00,,,0.00,Wunderground v.1.15,2013-02-18 19:21:00,
2013-02-18 14:23:00,38.6,12.6,30.26,North,360,6.0,17.0,34,0.00,,,0.00,Wunderground v.1.15,2013-02-18 19:23:00,
2013-02-18 14:27:00,38.8,12.1,30.26,North,360,6.0,17.0,33,0.00,,,0.00,Wunderground v.1.15,2013-02-18 19:27:00,
2013-02-18 14:33:00,39.3,12.6,30.26,North,360,4.0,9.0,33,0.00,,,0.00,Wunderground v.1.15,2013-02-18 19:33:00,
2013-02-18 14:39:00,39.6,12.8,30.26,North,360,4.0,7.0,33,0.00,,,0.00,Wunderground v.1.15,2013-02-18 19:39:00,
2013-02-18 14:43:00,39.5,12.0,30.26,North,360,8.0,13.0,32,0.00,,,0.00,Wunderground v.1.15,2013-02-18 19:43:00,
2013-02-18 14:45:00,39.5,12.7,30.25,North,360,8.0,13.0,33,0.00,,,0.00,Wunderground v.1.15,2013-02-18 19:45:00,
2013-02-18 14:49:00,39.6,12.8,30.25,North,360,8.0,9.0,33,0.00,,,0.00,Wunderground v.1.15,2013-02-18 19:49:00,
2013-02-18 14:55:00,39.6,12.8,30.25,North,360,7.0,9.0,33,0.00,,,0.00,Wunderground v.1.15,2013-02-18 19:55:00,
2013-02-18 15:01:00,40.2,13.3,30.25,North,360,5.0,7.0,33,0.00,,,0.00,Wunderground v.1.15,2013-02-18 20:01:00,
2013-02-18 15:03:00,40.1,13.3,30.25,North,360,4.0,7.0,33,0.00,,,0.00,Wunderground v.1.15,2013-02-18 20:03:00,
2013-02-18 15:05:00,40.0,13.2,30.25,North,360,5.0,12.0,33,0.00,,,0.00,Wunderground v.1.15,2013-02-18 20:05:00,
2013-02-18 15:09:00,39.7,12.9,30.25,North,360,7.0,9.0,33,0.00,,,0.00,Wunderground v.1.15,2013-02-18 20:09:00,
2013-02-18 15:11:00,39.7,13.6,30.25,North,360,7.0,9.0,34,0.00,,,0.00,Wunderground v.1.15,2013-02-18 20:11:00,
2013-02-18 15:13:00,39.8,14.3,30.25,North,360,7.0,9.0,35,0.00,,,0.00,Wunderground v.1.15,2013-02-18 20:13:00,
2013-02-18 15:17:00,39.9,14.4,30.25,North,360,7.0,11.0,35,0.00,,,0.00,Wunderground v.1.15,2013-02-18 20:17:00,
2013-02-18 15:21:00,40.2,14.7,30.25,North,360,6.0,7.0,35,0.00,,,0.00,Wunderground v.1.15,2013-02-18 20:21:00,
2013-02-18 15:23:00,40.2,14.0,30.25,North,360,6.0,11.0,34,0.00,,,0.00,Wunderground v.1.15,2013-02-18 20:23:00,
2013-02-18 15:25:00,40.0,14.5,30.25,North,360,7.0,11.0,35,0.00,,,0.00,Wunderground v.1.15,2013-02-18 20:25:00,
2013-02-18 15:29:00,39.9,14.4,30.25,North,360,7.0,7.0,35,0.00,,,0.00,Wunderground v.1.15,2013-02-18 20:29:00,
2013-02-18 15:31:00,39.8,14.3,30.25,North,360,8.0,8.0,35,0.00,,,0.00,Wunderground v.1.15,2013-02-18 20:31:00,
2013-02-18 15:33:00,39.8,14.3,30.25,North,360,7.0,8.0,35,0.00,,,0.00,Wunderground v.1.15,2013-02-18 20:33:00,
2013-02-18 15:35:00,39.9,14.4,30.25,North,360,7.0,9.0,35,0.00,,,0.00,Wunderground v.1.15,2013-02-18 20:35:00,
2013-02-18 15:39:00,40.1,14.6,30.25,North,360,7.0,7.0,35,0.00,,,0.00,Wunderground v.1.15,2013-02-18 20:39:00,
2013-02-18 15:41:00,40.1,14.6,30.25,North,360,7.0,8.0,35,0.00,,,0.00,Wunderground v.1.15,2013-02-18 20:41:00,
2013-02-18 15:47:00,40.5,15.0,30.25,North,360,6.0,10.0,35,0.00,,,0.00,Wunderground v.1.15,2013-02-18 20:47:00,
2013-02-18 15:51:00,40.7,14.5,30.25,North,360,7.0,14.0,34,0.00,,,0.00,Wunderground v.1.15,2013-02-18 20:51:00,
2013-02-18 15:53:00,40.4,14.2,30.25,North,360,7.0,14.0,34,0.00,,,0.00,Wunderground v.1.15,2013-02-18 20:53:00,
2013-02-18 15:57:00,40.2,14.0,30.24,North,360,8.0,14.0,34,0.00,,,0.00,Wunderground v.1.15,2013-02-18 20:57:00,
2013-02-18 15:59:00,40.1,14.6,30.24,North,360,9.0,9.0,35,0.00,,,0.00,Wunderground v.1.15,2013-02-18 20:59:00,
2013-02-18 16:05:00,40.0,14.5,30.24,North,360,9.0,9.0,35,0.00,,,0.00,Wunderground v.1.15,2013-02-18 21:05:00,
2013-02-18 16:11:00,40.4,14.9,30.24,North,360,8.0,9.0,35,0.00,,,0.00,Wunderground v.1.15,2013-02-18 21:11:00,
2013-02-18 16:13:00,40.5,15.0,30.24,North,360,8.0,11.0,35,0.00,,,0.00,Wunderground v.1.15,2013-02-18 21:13:00,
2013-02-18 16:19:00,40.4,14.9,30.24,North,360,8.0,8.0,35,0.00,,,0.00,Wunderground v.1.15,2013-02-18 21:19:00,
2013-02-18 16:21:00,40.5,15.0,30.24,North,360,8.0,12.0,35,0.00,,,0.00,Wunderground v.1.15,2013-02-18 21:21:00,
2013-02-18 16:27:00,40.7,15.1,30.24,North,360,7.0,12.0,35,0.00,,,0.00,Wunderground v.1.15,2013-02-18 21:27:00,
2013-02-18 16:29:00,40.7,15.1,30.24,North,360,8.0,11.0,35,0.00,,,0.00,Wunderground v.1.15,2013-02-18 21:29:00,
2013-02-18 16:33:00,40.7,14.5,30.24,North,360,8.0,11.0,34,0.00,,,0.00,Wunderground v.1.15,2013-02-18 21:33:00,
2013-02-18 16:37:00,40.8,14.6,30.24,North,360,9.0,11.0,34,0.00,,,0.00,Wunderground v.1.15,2013-02-18 21:37:00,
2013-02-18 16:39:00,40.8,14.6,30.24,North,360,8.0,10.0,34,0.00,,,0.00,Wunderground v.1.15,2013-02-18 21:39:00,
2013-02-18 16:41:00,40.8,14.6,30.24,North,360,8.0,10.0,34,0.00,,,0.00,Wunderground v.1.15,2013-02-18 21:41:00,
2013-02-18 16:43:00,40.8,14.6,30.23,North,360,8.0,10.0,34,0.00,,,0.00,Wunderground v.1.15,2013-02-18 21:43:00,
2013-02-18 16:45:00,40.9,14.6,30.24,North,360,8.0,10.0,34,0.00,,,0.00,Wunderground v.1.15,2013-02-18 21:45:00,
2013-02-18 16:47:00,40.9,14.6,30.24,North,360,7.0,10.0,34,0.00,,,0.00,Wunderground v.1.15,2013-02-18 21:47:00,
2013-02-18 16:53:00,41.0,14.7,30.24,North,360,7.0,10.0,34,0.00,,,0.00,Wunderground v.1.15,2013-02-18 21:53:00,
2013-02-18 16:55:00,40.9,14.0,30.24,North,360,7.0,11.0,33,0.00,,,0.00,Wunderground v.1.15,2013-02-18 21:55:00,
2013-02-18 17:01:00,41.2,14.2,30.24,North,360,8.0,9.0,33,0.00,,,0.00,Wunderground v.1.15,2013-02-18 22:01:00,
2013-02-18 17:03:00,41.1,14.1,30.24,North,360,8.0,9.0,33,0.00,,,0.00,Wunderground v.1.15,2013-02-18 22:03:00,
2013-02-18 17:05:00,41.3,14.3,30.24,North,360,7.0,9.0,33,0.00,,,0.00,Wunderground v.1.15,2013-02-18 22:05:00,
2013-02-18 17:07:00,41.3,13.6,30.24,North,360,7.0,12.0,32,0.00,,,0.00,Wunderground v.1.15,2013-02-18 22:07:00,
2013-02-18 17:09:00,41.3,13.6,30.24,North,360,6.0,6.0,32,0.00,,,0.00,Wunderground v.1.15,2013-02-18 22:09:00,
2013-02-18 17:11:00,41.3,14.3,30.24,North,360,6.0,6.0,33,0.00,,,0.00,Wunderground v.1.15,2013-02-18 22:11:00,
2013-02-18 17:13:00,41.4,14.4,30.24,North,360,5.0,6.0,33,0.00,,,0.00,Wunderground v.1.15,2013-02-18 22:13:00,
2013-02-18 17:15:00,41.4,13.7,30.24,North,360,5.0,6.0,32,0.00,,,0.00,Wunderground v.1.15,2013-02-18 22:15:00,
2013-02-18 17:19:00,41.5,13.8,30.24,North,360,5.0,7.0,32,0.00,,,0.00,Wunderground v.1.15,2013-02-18 22:19:00,
2013-02-18 17:21:00,41.4,13.7,30.24,North,360,5.0,7.0,32,0.00,,,0.00,Wunderground v.1.15,2013-02-18 22:21:00,
2013-02-18 17:27:00,41.1,13.4,30.24,North,360,6.0,7.0,32,0.00,,,0.00,Wunderground v.1.15,2013-02-18 22:27:00,
2013-02-18 17:29:00,41.1,14.1,30.24,North,360,6.0,7.0,33,0.00,,,0.00,Wunderground v.1.15,2013-02-18 22:29:00,
2013-02-18 17:33:00,41.1,14.1,30.24,North,360,6.0,7.0,33,0.00,,,0.00,Wunderground v.1.15,2013-02-18 22:33:00,
2013-02-18 17:35:00,41.1,14.1,30.24,North,360,5.0,7.0,33,0.00,,,0.00,Wunderground v.1.15,2013-02-18 22:35:00,
2013-02-18 17:39:00,41.1,14.8,30.24,North,360,4.0,5.0,34,0.00,,,0.00,Wunderground v.1.15,2013-02-18 22:39:00,
2013-02-18 17:41:00,41.1,14.1,30.24,North,360,5.0,5.0,33,0.00,,,0.00,Wunderground v.1.15,2013-02-18 22:41:00,
2013-02-18 17:45:00,41.1,14.8,30.24,North,360,5.0,5.0,34,0.00,,,0.00,Wunderground v.1.15,2013-02-18 22:45:00,
2013-02-18 17:47:00,41.2,14.9,30.24,North,360,6.0,7.0,34,0.00,,,0.00,Wunderground v.1.15,2013-02-18 22:47:00,
2013-02-18 17:51:00,41.2,14.9,30.24,North,360,5.0,7.0,34,0.00,,,0.00,Wunderground v.1.15,2013-02-18 22:51:00,
2013-02-18 17:53:00,41.2,14.9,30.25,North,360,5.0,7.0,34,0.00,,,0.00,Wunderground v.1.15,2013-02-18 22:53:00,
2013-02-18 17:57:00,41.3,14.3,30.24,North,360,4.0,7.0,33,0.00,,,0.00,Wunderground v.1.15,2013-02-18 22:57:00,
2013-02-18 17:59:00,41.3,14.3,30.24,North,360,4.0,4.0,33,0.00,,,0.00,Wunderground v.1.15,2013-02-18 22:59:00,
2013-02-18 18:05:00,41.3,15.0,30.24,North,360,3.0,4.0,34,0.00,,,0.00,Wunderground v.1.15,2013-02-18 23:05:00,
2013-02-18 18:09:00,41.3,14.3,30.25,North,360,3.0,3.0,33,0.00,,,0.00,Wunderground v.1.15,2013-02-18 23:09:00,
2013-02-18 18:11:00,41.4,14.4,30.25,North,360,2.0,5.0,33,0.00,,,0.00,Wunderground v.1.15,2013-02-18 23:11:00,
2013-02-18 18:13:00,41.4,13.7,30.24,North,360,3.0,5.0,32,0.00,,,0.00,Wunderground v.1.15,2013-02-18 23:13:00,
2013-02-18 18:15:00,41.3,14.3,30.25,North,360,3.0,5.0,33,0.00,,,0.00,Wunderground v.1.15,2013-02-18 23:15:00,
2013-02-18 18:17:00,41.3,14.3,30.25,North,360,4.0,6.0,33,0.00,,,0.00,Wunderground v.1.15,2013-02-18 23:17:00,
2013-02-18 18:23:00,40.9,14.0,30.25,North,360,5.0,7.0,33,0.00,,,0.00,Wunderground v.1.15,2013-02-18 23:23:00,
2013-02-18 18:29:00,40.9,14.0,30.25,North,360,4.0,4.0,33,0.00,,,0.00,Wunderground v.1.15,2013-02-18 23:29:00,
2013-02-18 18:31:00,40.9,14.0,30.25,North,360,3.0,7.0,33,0.00,,,0.00,Wunderground v.1.15,2013-02-18 23:31:00,
2013-02-18 18:35:00,40.9,14.0,30.25,North,360,4.0,7.0,33,0.00,,,0.00,Wunderground v.1.15,2013-02-18 23:35:00,
2013-02-18 18:37:00,40.9,14.0,30.25,North,360,4.0,7.0,33,0.00,,,0.00,Wunderground v.1.15,2013-02-18 23:37:00,
2013-02-18 18:41:00,40.6,13.7,30.24,North,360,5.0,5.0,33,0.00,,,0.00,Wunderground v.1.15,2013-02-18 23:41:00,
2013-02-18 18:43:00,40.6,14.4,30.24,North,360,5.0,5.0,34,0.00,,,0.00,Wunderground v.1.15,2013-02-18 23:43:00,
2013-02-18 18:47:00,40.5,14.3,30.24,North,360,5.0,5.0,34,0.00,,,0.00,Wunderground v.1.15,2013-02-18 23:47:00,
2013-02-18 18:51:00,40.5,14.3,30.25,North,360,4.0,4.0,34,0.00,,,0.00,Wunderground v.1.15,2013-02-18 23:51:00,
2013-02-18 18:53:00,40.5,14.3,30.24,North,360,3.0,4.0,34,0.00,,,0.00,Wunderground v.1.15,2013-02-18 23:53:00,
2013-02-18 18:57:00,40.6,14.4,30.24,North,360,3.0,4.0,34,0.00,,,0.00,Wunderground v.1.15,2013-02-18 23:57:00,
2013-02-18 18:59:00,40.6,14.4,30.24,North,360,3.0,3.0,34,0.00,,,0.00,Wunderground v.1.15,2013-02-18 23:59:00,
2013-02-18 19:03:00,40.5,14.3,30.24,North,360,4.0,7.0,34,0.00,,,0.00,Wunderground v.1.15,2013-02-19 00:03:00,
2013-02-18 19:05:00,40.4,14.2,30.24,North,360,5.0,7.0,34,0.00,,,0.00,Wunderground v.1.15,2013-02-19 00:05:00,
2013-02-18 19:09:00,40.2,14.0,30.24,North,360,5.0,5.0,34,0.00,,,0.00,Wunderground v.1.15,2013-02-19 00:09:00,
2013-02-18 19:13:00,40.1,14.6,30.24,North,360,5.0,5.0,35,0.00,,,0.00,Wunderground v.1.15,2013-02-19 00:13:00,
2013-02-18 19:19:00,40.0,14.5,30.24,North,360,5.0,5.0,35,0.00,,,0.00,Wunderground v.1.15,2013-02-19 00:19:00,
2013-02-18 19:25:00,40.0,14.5,30.24,North,360,4.0,5.0,35,0.00,,,0.00,Wunderground v.1.15,2013-02-19 00:25:00,
2013-02-18 19:27:00,40.0,14.5,30.24,North,360,4.0,5.0,35,0.00,,,0.00,Wunderground v.1.15,2013-02-19 00:27:00,
2013-02-18 19:29:00,40.0,14.5,30.24,North,360,3.0,3.0,35,0.00,,,0.00,Wunderground v.1.15,2013-02-19 00:29:00,
2013-02-18 19:31:00,40.0,14.5,30.24,North,360,3.0,4.0,35,0.00,,,0.00,Wunderground v.1.15,2013-02-19 00:31:00,
2013-02-18 19:33:00,40.1,14.6,30.24,North,360,3.0,4.0,35,0.00,,,0.00,Wunderground v.1.15,2013-02-19 00:33:00,
2013-02-18 19:37:00,40.1,14.6,30.23,North,360,3.0,5.0,35,0.00,,,0.00,Wunderground v.1.15,2013-02-19 00:37:00,
2013-02-18 19:39:00,40.1,14.6,30.23,North,360,3.0,5.0,35,0.00,,,0.00,Wunderground v.1.15,2013-02-19 00:39:00,
2013-02-18 19:43:00,39.9,14.4,30.23,North,360,4.0,5.0,35,0.00,,,0.00,Wunderground v.1.15,2013-02-19 00:43:00,
2013-02-18 19:45:00,39.8,15.0,30.23,North,360,4.0,5.0,36,0.00,,,0.00,Wunderground v.1.15,2013-02-19 00:45:00,
2013-02-18 19:49:00,39.8,15.0,30.23,North,360,4.0,4.0,36,0.00,,,0.00,Wunderground v.1.15,2013-02-19 00:49:00,
2013-02-18 19:51:00,39.8,15.0,30.23,North,360,3.0,4.0,36,0.00,,,0.00,Wunderground v.1.15,2013-02-19 00:51:00,
2013-02-18 19:55:00,39.8,15.0,30.23,North,360,2.0,4.0,36,0.00,,,0.00,Wunderground v.1.15,2013-02-19 00:55:00,
2013-02-18 19:59:00,39.7,14.9,30.22,North,360,2.0,3.0,36,0.00,,,0.00,Wunderground v.1.15,2013-02-19 00:59:00,
2013-02-18 20:01:00,39.7,14.9,30.22,North,360,3.0,7.0,36,0.00,,,0.00,Wunderground v.1.15,2013-02-19 01:01:00,
2013-02-18 20:03:00,39.7,14.9,30.23,North,360,4.0,7.0,36,0.00,,,0.00,Wunderground v.1.15,2013-02-19 01:03:00,
2013-02-18 20:05:00,39.7,14.9,30.23,North,360,4.0,7.0,36,0.00,,,0.00,Wunderground v.1.15,2013-02-19 01:05:00,
2013-02-18 20:07:00,39.8,15.6,30.22,North,360,4.0,7.0,37,0.00,,,0.00,Wunderground v.1.15,2013-02-19 01:07:00,
2013-02-18 20:11:00,39.8,15.0,30.22,North,360,3.0,4.0,36,0.00,,,0.00,Wunderground v.1.15,2013-02-19 01:11:00,
2013-02-18 20:13:00,39.8,15.6,30.22,North,360,3.0,5.0,37,0.00,,,0.00,Wunderground v.1.15,2013-02-19 01:13:00,
2013-02-18 20:15:00,39.8,15.6,30.22,North,360,3.0,5.0,37,0.00,,,0.00,Wunderground v.1.15,2013-02-19 01:15:00,
2013-02-18 20:17:00,39.8,15.6,30.22,North,360,3.0,5.0,37,0.00,,,0.00,Wunderground v.1.15,2013-02-19 01:17:00,
2013-02-18 20:23:00,39.8,15.6,30.22,North,360,3.0,3.0,37,0.00,,,0.00,Wunderground v.1.15,2013-02-19 01:23:00,
2013-02-18 20:27:00,39.7,15.5,30.22,North,360,2.0,4.0,37,0.00,,,0.00,Wunderground v.1.15,2013-02-19 01:27:00,
2013-02-18 20:29:00,39.7,15.5,30.22,North,360,2.0,2.0,37,0.00,,,0.00,Wunderground v.1.15,2013-02-19 01:29:00,
2013-02-18 20:33:00,39.5,15.3,30.22,North,360,3.0,9.0,37,0.00,,,0.00,Wunderground v.1.15,2013-02-19 01:33:00,
2013-02-18 20:35:00,39.5,15.3,30.22,North,360,3.0,9.0,37,0.00,,,0.00,Wunderground v.1.15,2013-02-19 01:35:00,
2013-02-18 20:37:00,39.5,15.3,30.22,North,360,3.0,9.0,37,0.00,,,0.00,Wunderground v.1.15,2013-02-19 01:37:00,
2013-02-18 20:39:00,39.5,15.3,30.22,North,360,4.0,5.0,37,0.00,,,0.00,Wunderground v.1.15,2013-02-19 01:39:00,
2013-02-18 20:41:00,39.5,16.0,30.22,North,360,4.0,5.0,38,0.00,,,0.00,Wunderground v.1.15,2013-02-19 01:41:00,
2013-02-18 20:45:00,39.4,15.9,30.21,North,360,4.0,6.0,38,0.00,,,0.00,Wunderground v.1.15,2013-02-19 01:45:00,
2013-02-18 20:47:00,39.3,15.8,30.21,North,360,4.0,6.0,38,0.00,,,0.00,Wunderground v.1.15,2013-02-19 01:47:00,
2013-02-18 20:49:00,39.3,16.4,30.22,North,360,4.0,5.0,39,0.00,,,0.00,Wunderground v.1.15,2013-02-19 01:49:00,
2013-02-18 20:53:00,39.2,15.7,30.21,North,360,4.0,5.0,38,0.00,,,0.00,Wunderground v.1.15,2013-02-19 01:53:00,
2013-02-18 20:55:00,39.2,15.7,30.22,North,360,4.0,7.0,38,0.00,,,0.00,Wunderground v.1.15,2013-02-19 01:55:00,
2013-02-18 21:01:00,39.2,15.7,30.21,North,360,5.0,5.0,38,0.00,,,0.00,Wunderground v.1.15,2013-02-19 02:01:00,
2013-02-18 21:03:00,39.2,15.7,30.21,North,360,5.0,6.0,38,0.00,,,0.00,Wunderground v.1.15,2013-02-19 02:03:00,
2013-02-18 21:05:00,39.2,15.7,30.21,North,360,5.0,6.0,38,0.00,,,0.00,Wunderground v.1.15,2013-02-19 02:05:00,
2013-02-18 21:07:00,39.2,15.7,30.21,North,360,5.0,6.0,38,0.00,,,0.00,Wunderground v.1.15,2013-02-19 02:07:00,
2013-02-18 21:11:00,39.2,15.7,30.21,North,360,4.0,6.0,38,0.00,,,0.00,Wunderground v.1.15,2013-02-19 02:11:00,
2013-02-18 21:13:00,39.2,15.7,30.21,North,360,4.0,6.0,38,0.00,,,0.00,Wunderground v.1.15,2013-02-19 02:13:00,
2013-02-18 21:15:00,39.2,15.7,30.21,North,360,4.0,6.0,38,0.00,,,0.00,Wunderground v.1.15,2013-02-19 02:15:00,
2013-02-18 21:19:00,39.1,15.6,30.20,North,360,4.0,4.0,38,0.00,,,0.00,Wunderground v.1.15,2013-02-19 02:19:00,
2013-02-18 21:21:00,39.1,15.6,30.20,North,360,4.0,8.0,38,0.00,,,0.00,Wunderground v.1.15,2013-02-19 02:21:00,
2013-02-18 21:25:00,39.1,15.6,30.20,North,360,4.0,8.0,38,0.00,,,0.00,Wunderground v.1.15,2013-02-19 02:25:00,
2013-02-18 21:29:00,39.1,16.2,30.20,North,360,5.0,5.0,39,0.00,,,0.00,Wunderground v.1.15,2013-02-19 02:29:00,
2013-02-18 21:33:00,39.2,16.3,30.20,North,360,5.0,8.0,39,0.00,,,0.00,Wunderground v.1.15,2013-02-19 02:33:00,
2013-02-18 21:35:00,39.2,16.3,30.19,North,360,5.0,8.0,39,0.00,,,0.00,Wunderground v.1.15,2013-02-19 02:35:00,
2013-02-18 21:37:00,39.2,16.3,30.19,North,360,5.0,8.0,39,0.00,,,0.00,Wunderground v.1.15,2013-02-19 02:37:00,
2013-02-18 21:41:00,39.3,16.4,30.20,North,360,4.0,4.0,39,0.00,,,0.00,Wunderground v.1.15,2013-02-19 02:41:00,
2013-02-18 21:47:00,39.6,16.6,30.20,North,360,5.0,7.0,39,0.00,,,0.00,Wunderground v.1.15,2013-02-19 02:47:00,
2013-02-18 21:49:00,39.6,16.6,30.20,North,360,5.0,9.0,39,0.00,,,0.00,Wunderground v.1.15,2013-02-19 02:49:00,
2013-02-18 21:53:00,39.7,16.7,30.19,North,360,6.0,9.0,39,0.00,,,0.00,Wunderground v.1.15,2013-02-19 02:53:00,
2013-02-18 21:55:00,39.7,16.7,30.19,North,360,5.0,9.0,39,0.00,,,0.00,Wunderground v.1.15,2013-02-19 02:55:00,
2013-02-18 21:59:00,39.7,16.7,30.19,North,360,5.0,7.0,39,0.00,,,0.00,Wunderground v.1.15,2013-02-19 02:59:00,
2013-02-18 22:05:00,39.7,17.3,30.19,North,360,6.0,7.0,40,0.00,,,0.00,Wunderground v.1.15,2013-02-19 03:05:00,
2013-02-18 22:07:00,39.7,17.3,30.19,North,360,6.0,7.0,40,0.00,,,0.00,Wunderground v.1.15,2013-02-19 03:07:00,
2013-02-18 22:13:00,39.7,17.9,30.19,North,360,6.0,7.0,41,0.00,,,0.00,Wunderground v.1.15,2013-02-19 03:13:00,
2013-02-18 22:19:00,39.7,17.9,30.19,North,360,7.0,7.0,41,0.00,,,0.00,Wunderground v.1.15,2013-02-19 03:19:00,
2013-02-18 22:21:00,39.6,18.4,30.18,North,360,7.0,7.0,42,0.00,,,0.00,Wunderground v.1.15,2013-02-19 03:21:00,
2013-02-18 22:23:00,39.6,18.4,30.18,North,360,6.0,7.0,42,0.00,,,0.00,Wunderground v.1.15,2013-02-19 03:23:00,
2013-02-18 22:25:00,39.6,18.4,30.18,North,360,6.0,11.0,42,0.00,,,0.00,Wunderground v.1.15,2013-02-19 03:25:00,
2013-02-18 22:29:00,39.5,18.3,30.19,North,360,6.0,6.0,42,0.00,,,0.00,Wunderground v.1.15,2013-02-19 03:29:00,
2013-02-18 22:31:00,39.5,18.8,30.19,North,360,7.0,15.0,43,0.00,,,0.00,Wunderground v.1.15,2013-02-19 03:31:00,
2013-02-18 22:33:00,39.5,18.8,30.18,North,360,8.0,15.0,43,0.00,,,0.00,Wunderground v.1.15,2013-02-19 03:33:00,
2013-02-18 22:37:00,39.4,18.7,30.19,North,360,8.0,15.0,43,0.00,,,0.00,Wunderground v.1.15,2013-02-19 03:37:00,
2013-02-18 22:39:00,39.4,19.3,30.19,North,360,8.0,8.0,44,0.00,,,0.00,Wunderground v.1.15,2013-02-19 03:39:00,
2013-02-18 22:43:00,39.4,19.3,30.18,North,360,6.0,8.0,44,0.00,,,0.00,Wunderground v.1.15,2013-02-19 03:43:00,
2013-02-18 22:49:00,39.4,19.3,30.18,North,360,5.0,6.0,44,0.00,,,0.00,Wunderground v.1.15,2013-02-19 03:49:00,
2013-02-18 22:51:00,39.4,19.3,30.18,North,360,5.0,9.0,44,0.00,,,0.00,Wunderground v.1.15,2013-02-19 03:51:00,
2013-02-18 22:53:00,39.4,19.3,30.18,North,360,5.0,9.0,44,0.00,,,0.00,Wunderground v.1.15,2013-02-19 03:53:00,
2013-02-18 22:57:00,39.4,19.3,30.18,North,360,6.0,12.0,44,0.00,,,0.00,Wunderground v.1.15,2013-02-19 03:57:00,
2013-02-18 22:59:00,39.4,19.3,30.18,North,360,7.0,9.0,44,0.00,,,0.00,Wunderground v.1.15,2013-02-19 03:59:00,
2013-02-18 23:03:00,39.3,19.2,30.18,North,360,7.0,9.0,44,0.00,,,0.00,Wunderground v.1.15,2013-02-19 04:03:00,
2013-02-18 23:05:00,39.2,19.6,30.18,North,360,6.0,9.0,45,0.00,,,0.00,Wunderground v.1.15,2013-02-19 04:05:00,
2013-02-18 23:07:00,39.2,19.6,30.18,North,360,6.0,9.0,45,0.00,,,0.00,Wunderground v.1.15,2013-02-19 04:07:00,
2013-02-18 23:13:00,39.1,19.5,30.17,North,360,4.0,5.0,45,0.00,,,0.00,Wunderground v.1.15,2013-02-19 04:13:00,
2013-02-18 23:19:00,39.0,19.4,30.17,North,360,3.0,4.0,45,0.00,,,0.00,Wunderground v.1.15,2013-02-19 04:19:00,
2013-02-18 23:23:00,39.0,19.9,30.17,North,360,4.0,5.0,46,0.00,,,0.00,Wunderground v.1.15,2013-02-19 04:23:00,
2013-02-18 23:25:00,39.0,19.9,30.17,North,360,4.0,5.0,46,0.00,,,0.00,Wunderground v.1.15,2013-02-19 04:25:00,
2013-02-18 23:29:00,39.0,19.9,30.17,North,360,4.0,4.0,46,0.00,,,0.00,Wunderground v.1.15,2013-02-19 04:29:00,
2013-02-18 23:31:00,39.0,19.9,30.17,North,360,4.0,4.0,46,0.00,,,0.00,Wunderground v.1.15,2013-02-19 04:31:00,
2013-02-18 23:35:00,39.0,20.5,30.17,North,360,4.0,4.0,47,0.00,,,0.00,Wunderground v.1.15,2013-02-19 04:35:00,
2013-02-18 23:37:00,39.0,20.5,30.17,North,360,4.0,6.0,47,0.00,,,0.00,Wunderground v.1.15,2013-02-19 04:37:00,
2013-02-18 23:43:00,39.1,20.0,30.16,North,360,5.0,6.0,46,0.00,,,0.00,Wunderground v.1.15,2013-02-19 04:43:00,
2013-02-18 23:49:00,39.1,20.5,30.17,North,360,5.0,6.0,47,0.00,,,0.00,Wunderground v.1.15,2013-02-19 04:49:00,
2013-02-18 23:51:00,39.1,20.0,30.16,North,360,5.0,6.0,46,0.00,,,0.00,Wunderground v.1.15,2013-02-19 04:51:00,
2013-02-18 23:57:00,39.2,20.6,30.16,North,360,4.0,6.0,47,0.00,,,0.00,Wunderground v.1.15,2013-02-19 04:57:00,
2013-02-18 23:59:00,39.3,20.7,30.16,North,360,4.0,4.0,47,0.00,,,0.00,Wunderground v.1.15,2013-02-19 04:59:00,